createdAt,value
2022-11-15T00:03:30.041Z,29.55
2022-11-15T00:08:41.793Z,29.30
2022-11-15T00:13:53.268Z,29.58
2022-11-15T00:19:04.190Z,29.15
2022-11-15T00:24:16.166Z,25.40
2022-11-15T00:29:27.645Z,24.05
2022-11-15T00:34:39.653Z,26.10
2022-11-15T00:39:51.259Z,26.80
2022-11-15T00:45:03.904Z,27.90
2022-11-15T00:50:15.874Z,27.48
2022-11-15T00:55:28.308Z,27.48
2022-11-15T01:00:39.992Z,26.73
2022-11-15T01:05:51.505Z,26.92
2022-11-15T01:11:08.578Z,27.77
2022-11-15T01:16:20.374Z,27.88
2022-11-15T01:21:31.945Z,28.73
2022-11-15T01:26:44.437Z,29.38
2022-11-15T01:31:56.256Z,23.65
2022-11-15T01:37:07.942Z,27.10
2022-11-15T01:42:20.383Z,27.80
2022-11-15T01:47:35.769Z,27.52
2022-11-15T01:52:47.430Z,25.67
2022-11-15T01:58:03.552Z,26.17
2022-11-15T02:03:16.290Z,26.65
2022-11-15T02:08:27.943Z,22.95
2022-11-15T02:13:40.734Z,21.65
2022-11-15T02:19:04.972Z,23.83
2022-11-15T02:24:32.668Z,22.15
2022-11-15T02:30:13.147Z,22.77
2022-11-15T02:36:01.926Z,23.35
2022-11-15T02:41:20.535Z,21.58
2022-11-15T02:46:58.762Z,23.45
2022-11-15T02:52:10.782Z,21.67
2022-11-15T02:57:46.311Z,21.20
2022-11-15T03:03:36.289Z,21.05
2022-11-15T03:09:05.868Z,22.00
2022-11-15T03:14:16.647Z,21.43
2022-11-15T03:19:49.121Z,21.10
2022-11-15T03:25:04.871Z,20.38
2022-11-15T03:30:17.352Z,21.40
2022-11-15T03:35:41.247Z,20.83
2022-11-15T03:41:34.658Z,20.65
2022-11-15T03:46:55.210Z,23.95
2022-11-15T03:52:08.671Z,24.30
2022-11-15T03:57:20.587Z,22.33
2022-11-15T04:02:32.255Z,22.98
2022-11-15T04:07:44.543Z,24.00
2022-11-15T04:12:56.622Z,25.67
2022-11-15T04:18:08.838Z,22.55
2022-11-15T04:23:40.437Z,25.45
2022-11-15T04:29:10.677Z,20.85
2022-11-15T04:34:22.367Z,19.45
2022-11-15T04:39:33.764Z,20.30
2022-11-15T04:44:45.704Z,22.25
2022-11-15T04:49:58.278Z,20.65
2022-11-15T04:55:11.586Z,19.23
2022-11-15T05:00:24.070Z,21.05
2022-11-15T05:05:36.413Z,19.30
2022-11-15T05:10:47.677Z,20.00
2022-11-15T05:15:59.990Z,22.13
2022-11-15T05:21:14.189Z,20.95
2022-11-15T05:26:26.538Z,21.90
2022-11-15T05:31:42.655Z,22.38
2022-11-15T05:36:54.887Z,21.73
2022-11-15T05:42:11.633Z,20.45
2022-11-15T05:47:26.336Z,21.75
2022-11-15T05:52:38.810Z,19.98
2022-11-15T05:57:50.721Z,19.70
2022-11-15T06:03:02.746Z,19.23
2022-11-15T06:08:14.981Z,19.63
2022-11-15T06:13:27.007Z,21.35
2022-11-15T06:18:39.636Z,19.25
2022-11-15T06:23:51.339Z,20.13
2022-11-15T06:29:06.141Z,17.35
2022-11-15T06:34:18.174Z,16.50
2022-11-15T06:39:29.575Z,19.63
2022-11-15T06:44:42.207Z,19.45
2022-11-15T06:49:54.263Z,20.48
2022-11-15T06:55:08.596Z,22.67
2022-11-15T07:00:22.386Z,19.02
2022-11-15T07:05:34.339Z,19.95
2022-11-15T07:10:46.335Z,23.50
2022-11-15T07:15:58.792Z,23.98
2022-11-15T07:21:12.133Z,23.52
2022-11-15T07:26:24.516Z,21.58
2022-11-15T07:31:37.326Z,22.90
2022-11-15T07:36:49.209Z,21.35
2022-11-15T07:42:20.188Z,18.65
2022-11-15T07:47:32.461Z,21.85
2022-11-15T07:52:44.610Z,24.60
2022-11-15T07:58:25.091Z,23.45
2022-11-15T08:03:37.244Z,26.23
2022-11-15T08:08:49.422Z,30.45
2022-11-15T08:14:01.021Z,25.38
2022-11-15T08:19:13.593Z,23.40
2022-11-15T08:24:26.142Z,21.55
2022-11-15T08:29:38.002Z,23.55
2022-11-15T08:34:49.199Z,25.50
2022-11-15T08:40:01.291Z,28.05
2022-11-15T08:45:14.040Z,27.08
2022-11-15T08:50:26.129Z,26.85
2022-11-15T08:55:39.476Z,30.05
2022-11-15T09:00:51.439Z,30.83
2022-11-15T09:06:03.982Z,33.13
2022-11-15T09:11:18.387Z,30.55
2022-11-15T09:16:32.328Z,29.40
2022-11-15T09:21:44.708Z,30.55
2022-11-15T09:26:57.108Z,29.27
2022-11-15T09:32:09.471Z,27.48
2022-11-15T09:37:22.386Z,26.48
2022-11-15T09:42:55.418Z,26.52
2022-11-15T09:48:31.822Z,29.17
2022-11-15T09:59:19.280Z,25.60
2022-11-15T10:04:14.962Z,28.27
2022-11-15T10:09:26.359Z,25.33
2022-11-15T10:14:25.647Z,25.30
2022-11-15T10:19:21.362Z,28.88
2022-11-15T10:24:18.350Z,27.25
2022-11-15T10:29:12.647Z,29.42
2022-11-15T10:34:20.690Z,26.48
2022-11-15T10:39:15.629Z,27.52
2022-11-15T10:44:09.395Z,27.77
2022-11-15T10:49:27.191Z,25.60
2022-11-15T10:54:30.353Z,30.05
2022-11-15T10:59:38.649Z,29.73
2022-11-15T11:04:51.958Z,29.80
2022-11-15T11:09:46.419Z,29.20
2022-11-15T11:14:41.938Z,31.15
2022-11-15T11:19:46.610Z,30.13
2022-11-15T11:24:55.095Z,31.20
2022-11-15T11:29:59.885Z,30.35
2022-11-15T11:35:13.522Z,34.22
2022-11-15T11:40:32.273Z,32.42
2022-11-15T11:45:37.805Z,34.33
2022-11-15T11:50:32.889Z,33.88
2022-11-15T11:55:42.966Z,34.05
2022-11-15T12:00:41.559Z,31.30
2022-11-15T12:05:57.864Z,32.83
2022-11-15T12:11:07.077Z,32.08
2022-11-15T12:16:18.014Z,33.25
2022-11-15T12:21:36.323Z,34.78
2022-11-15T12:26:39.037Z,33.30
2022-11-15T12:31:54.276Z,33.38
2022-11-15T12:36:53.162Z,36.03
2022-11-15T12:46:54.064Z,35.58
2022-11-15T12:52:06.881Z,34.72
2022-11-15T12:57:12.166Z,32.42
2022-11-15T13:02:22.680Z,32.75
2022-11-15T13:08:02.300Z,34.40
2022-11-15T13:13:05.802Z,29.27
2022-11-15T13:18:03.978Z,29.60
2022-11-15T13:23:07.192Z,28.50
2022-11-15T13:28:07.938Z,31.38
2022-11-15T13:33:20.454Z,29.88
2022-11-15T13:38:41.587Z,29.48
2022-11-15T13:43:50.385Z,27.33
2022-11-15T13:48:50.125Z,30.98
2022-11-15T13:53:54.280Z,31.27
2022-11-15T13:58:48.227Z,31.45
2022-11-15T14:04:00.385Z,29.05
2022-11-15T14:09:11.619Z,29.83
2022-11-15T14:14:11.067Z,29.05
2022-11-15T14:19:05.594Z,30.60
2022-11-15T14:24:18.973Z,28.58
2022-11-15T14:29:30.029Z,26.90
2022-11-15T14:34:24.097Z,29.23
2022-11-15T14:39:22.811Z,28.75
2022-11-15T14:44:20.305Z,31.25
2022-11-15T14:49:16.084Z,29.15
2022-11-15T14:54:12.929Z,28.30
2022-11-15T14:59:07.603Z,27.88
2022-11-15T15:04:00.862Z,27.73
2022-11-15T15:08:54.887Z,28.88
2022-11-15T15:13:49.776Z,26.60
2022-11-15T15:18:44.203Z,27.63
2022-11-15T15:23:39.037Z,25.63
2022-11-15T15:28:34.986Z,27.13
2022-11-15T15:33:28.855Z,26.45
2022-11-15T15:38:23.414Z,27.98
2022-11-15T15:43:17.970Z,26.17
2022-11-15T15:48:19.376Z,28.55
2022-11-15T15:53:15.104Z,27.52
2022-11-15T15:58:09.849Z,29.50
2022-11-15T16:03:04.181Z,26.92
2022-11-15T16:07:57.783Z,26.35
2022-11-15T16:12:52.080Z,28.27
2022-11-15T16:18:06.384Z,25.58
2022-11-15T16:23:05.779Z,26.15
2022-11-15T16:28:01.008Z,26.55
2022-11-15T16:32:55.468Z,24.50
2022-11-15T16:37:50.831Z,25.63
2022-11-15T16:42:45.464Z,26.30
2022-11-15T16:47:39.660Z,25.42
2022-11-15T16:52:33.844Z,24.25
2022-11-15T16:57:27.522Z,26.13
2022-11-15T17:02:21.775Z,29.33
2022-11-15T17:07:16.595Z,26.80
2022-11-15T17:12:12.333Z,29.23
2022-11-15T17:17:06.299Z,28.33
2022-11-15T17:22:00.009Z,25.45
2022-11-15T17:26:57.915Z,28.95
2022-11-15T17:31:51.719Z,28.60
2022-11-15T17:36:47.358Z,29.02
2022-11-15T17:41:42.063Z,27.95
2022-11-15T17:46:37.131Z,25.75
2022-11-15T17:51:30.458Z,27.75
2022-11-15T17:56:28.751Z,28.23
2022-11-15T18:01:28.914Z,26.77
2022-11-15T18:06:30.179Z,29.80
2022-11-15T18:11:31.319Z,34.65
2022-11-15T18:21:25.134Z,34.13
2022-11-15T18:26:26.646Z,43.15
2022-11-15T18:31:25.297Z,121.90
2022-11-15T18:36:27.407Z,86.22
2022-11-15T18:41:33.037Z,36.28
2022-11-15T18:46:39.455Z,54.00
2022-11-15T18:51:41.687Z,53.88
2022-11-15T18:56:44.226Z,39.83
2022-11-15T19:01:46.087Z,54.78
2022-11-15T19:06:45.270Z,35.58
2022-11-15T19:11:43.941Z,47.53
2022-11-15T19:17:06.085Z,37.00
2022-11-15T19:22:03.920Z,31.88
2022-11-15T19:27:05.540Z,37.37
2022-11-15T19:31:59.985Z,41.00
2022-11-15T19:36:57.880Z,33.00
2022-11-15T19:41:55.831Z,32.35
2022-11-15T19:46:54.718Z,29.45
2022-11-15T19:51:50.554Z,29.50
2022-11-15T19:56:50.117Z,29.20
2022-11-15T20:01:54.013Z,28.83
2022-11-15T20:06:53.771Z,26.67
2022-11-15T20:12:00.424Z,31.08
2022-11-15T20:17:01.778Z,31.77
2022-11-15T20:22:03.240Z,32.78
2022-11-15T20:27:02.230Z,29.33
2022-11-15T20:32:05.625Z,29.80
2022-11-15T20:37:03.380Z,29.90
2022-11-15T20:42:07.694Z,32.67
2022-11-15T20:47:03.610Z,29.58
2022-11-15T20:51:57.537Z,31.42
2022-11-15T20:56:54.028Z,31.83
2022-11-15T21:01:49.342Z,31.33
2022-11-15T21:06:47.741Z,29.75
2022-11-15T21:12:00.416Z,29.77
2022-11-15T21:16:55.095Z,29.40
2022-11-15T21:22:03.863Z,30.10
2022-11-15T21:26:58.132Z,32.20
2022-11-15T21:31:52.563Z,33.55
2022-11-15T21:36:46.602Z,31.80
2022-11-15T21:41:40.147Z,33.55
2022-11-15T21:46:34.350Z,32.83
2022-11-15T21:51:28.562Z,32.53
2022-11-15T21:56:22.740Z,34.72
2022-11-15T22:01:35.389Z,34.50
2022-11-15T22:06:33.871Z,34.10
2022-11-15T22:11:27.541Z,35.20
2022-11-15T22:16:26.813Z,38.22
2022-11-15T22:21:24.997Z,33.88
2022-11-15T22:26:23.684Z,34.25
2022-11-15T22:31:18.791Z,39.05
2022-11-15T22:36:14.635Z,32.85
2022-11-15T22:41:08.631Z,33.75
2022-11-15T22:46:13.490Z,34.25
2022-11-15T22:51:07.098Z,34.20
2022-11-15T22:56:03.765Z,35.78
2022-11-15T23:01:00.107Z,35.15
2022-11-15T23:05:54.094Z,35.10
2022-11-15T23:11:06.874Z,37.88
2022-11-15T23:16:23.606Z,35.13
2022-11-15T23:21:41.367Z,35.88
2022-11-15T23:26:35.278Z,37.92
2022-11-15T23:31:48.934Z,36.60
2022-11-15T23:36:45.231Z,37.33
2022-11-15T23:41:39.473Z,38.17
2022-11-15T23:46:33.888Z,37.55
2022-11-15T23:51:27.630Z,37.38
2022-11-15T23:56:22.004Z,38.72
